Bay Area Logo

San Jose, CA Condo Real Estate Listings

500 Total Real Estate Listings * Click on table heading to sort
Date Posted Property Type Style Address Price Living Area Lot Size Price/Sq Ft.
2017-10-16 Condo Contemporary 5483 Sanchez Drive San Jose, CA 95123 $540,000 1,033 sq. ft. 2,178 sq. ft. $523
2017-10-14 Condo 3126 Cedarcrest Lane San Jose, CA 95132 $689,000 1,452 sq. ft. 1,742 sq. ft. $475
2017-10-13 Condo 1908 Messina Drive San Jose, CA 95132 $708,000 1,240 sq. ft. 1,307 sq. ft. $571
2017-10-13 Condo 8628 American Oak Drive San Jose, CA 95135 $819,000 1,675 sq. ft. 1,742 sq. ft. $489
2017-10-13 Condo 7166 Gruber Court San Jose, CA 95139 $650,000 1,674 sq. ft. 2,614 sq. ft. $388
2017-10-13 Condo 20 Ryland Park Drive San Jose, CA 95110 $615,000 950 sq. ft. 871 sq. ft. $647
2017-10-13 Condo 1549 Fiesta Lane San Jose, CA 95126 $799,898 1,231 sq. ft. 871 sq. ft. $650
2017-10-13 Condo 855 Gaspar Vista San Jose, CA 95126 $748,000 1,343 sq. ft. 1,742 sq. ft. $557
2017-10-13 Condo 7071 Santa Teresa Boulevard San Jose, CA 95139 $638,000 1,656 sq. ft. 2,178 sq. ft. $385
2017-10-13 Condo Colonial; Traditional 1398 Loop Drive San Jose, CA 95126 $799,000 1,441 sq. ft. 1,742 sq. ft. $554
2017-10-13 Condo 88 San Fernando Street San Jose, CA 95113 $640,000 896 sq. ft. 436 sq. ft. $714
2017-10-13 Condo 394 Coyote Creek Circle San Jose, CA 95116 $435,000 849 sq. ft. 1,307 sq. ft. $512
2017-10-13 Condo 1414 Mcquesten Drive San Jose, CA 95122 $469,000 1,150 sq. ft. 436 sq. ft. $408
2017-10-13 Condo Contemporary 1970 Tradan Drive San Jose, CA 95132 $499,900 988 sq. ft. 1,742 sq. ft. $506
2017-10-13 Condo 3052 Creekside Drive San Jose, CA 95132 $559,000 1,003 sq. ft. 871 sq. ft. $557
2017-10-13 Condo 320 Auburn Way San Jose, CA 95129 $592,000 1,099 sq. ft. 436 sq. ft. $539
2017-10-13 Condo 296 Tradewinds Drive San Jose, CA 95123 $549,000 1,252 sq. ft. 2,614 sq. ft. $438
2017-10-13 Condo 1550 Technology Drive San Jose, CA 95110 $699,000 1,133 sq. ft. 1,307 sq. ft. $617
2017-10-13 Condo 4660 Hampton Falls Place San Jose, CA 95136 $695,000 1,805 sq. ft. 436 sq. ft. $385
2017-10-13 Condo Contemporary 1035 Harebell Place San Jose, CA 95131 $900,000 1,622 sq. ft. 1,307 sq. ft. $555
2017-10-13 Condo Traditional 2616 Heritage Park Circle San Jose, CA 95132 $768,000 1,670 sq. ft. 1,742 sq. ft. $460
2017-10-13 Condo Mediterranean 1057 Rock Avenue San Jose, CA 95131 $779,000 1,213 sq. ft. 2,178 sq. ft. $642
2017-10-13 Condo 108 Balbach Street San Jose, CA 95110 $720,000 1,264 sq. ft. 1,307 sq. ft. $570
2017-10-13 Condo Contemporary 3055 Ruby Avenue San Jose, CA 95135 $1,068,000 1,862 sq. ft. 3,049 sq. ft. $574
2017-10-13 Condo Mediterranean 801 Winchester Boulevard San Jose, CA 95128 $700,000 986 sq. ft. 871 sq. ft. $710
2017-10-13 Condo 3140 Saint Florian Way San Jose, CA 95136 $779,999 1,777 sq. ft. 1,742 sq. ft. $439
2017-10-13 Condo 6936 Gregorich Drive San Jose, CA 95138 $505,000 850 sq. ft. 1,307 sq. ft. $594
2017-10-13 Condo Contemporary 2251 Warfield Way San Jose, CA 95122 $499,000 1,165 sq. ft. 871 sq. ft. $428
2017-10-13 Condo 2187 Summerton Drive San Jose, CA 95122 $518,000 1,056 sq. ft. 436 sq. ft. $491
2017-10-12 Condo Contemporary 5461 Tradewinds Walkway San Jose, CA 95123 $369,000 798 sq. ft. $462
2017-10-11 Condo 3362 Methilhaven Lane San Jose, CA 95121 $639,999 1,320 sq. ft. 1,742 sq. ft. $485
2017-10-11 Condo 669 Alexandra Court San Jose, CA 95125 $799,900 1,963 sq. ft. 1,307 sq. ft. $407
2017-10-11 Condo Traditional 7360 Via Laguna San Jose, CA 95135 $715,000 1,568 sq. ft. 2,178 sq. ft. $456
2017-10-11 Condo 7234 Clarendon Street San Jose, CA 95129 $1,288,000 1,448 sq. ft. 871 sq. ft. $890
2017-10-11 Condo 4685 Albany Circle San Jose, CA 95129 $818,000 1,310 sq. ft. 1,742 sq. ft. $624
2017-10-11 Condo Contemporary 4175 Renaissance Drive San Jose, CA 95134 $795,000 1,119 sq. ft. 1,307 sq. ft. $710
2017-10-11 Condo Contemporary 3220 Darya Lane San Jose, CA 95136 $749,000 1,624 sq. ft. 1,742 sq. ft. $461
2017-10-11 Condo Traditional 5056 Cribari Vale San Jose, CA 95135 $454,900 1,240 sq. ft. 1,742 sq. ft. $367
2017-10-11 Condo 1325 Joplin Drive San Jose, CA 95118 $459,000 810 sq. ft. 6,970 sq. ft. $567
2017-10-11 Condo 148 Rancho Manor Court San Jose, CA 95111 $439,000 1,034 sq. ft. 436 sq. ft. $425
2017-10-11 Condo 1744 Bevin Brook Drive San Jose, CA 95112 $599,000 1,201 sq. ft. 436 sq. ft. $499
2017-10-11 Condo 302 Heredia Court San Jose, CA 95116 $399,000 881 sq. ft. 1,307 sq. ft. $453
2017-10-11 Condo 1395 Mcquesten Drive San Jose, CA 95122 $369,000 876 sq. ft. 1,307 sq. ft. $421
2017-10-11 Condo Contemporary 5461 Tradewinds Ww San Jose, CA 95123 $369,000 798 sq. ft. 1,742 sq. ft. $462
2017-10-11 Condo Contemporary 1395 Mcquesten Drive San Jose, CA 95122 $369,000 876 sq. ft. $421
2017-10-09 Condo Spanish/Mediterranean 2134 Vizcaya Way San Jose, CA 95008 $1,198,000 2,459 sq. ft. $487
2017-10-09 Condo 624 Celebration Court San Jose, CA 95134 $488,888 776 sq. ft. 1,307 sq. ft. $630
2017-10-08 Condo 1019 Foxchase Drive San Jose, CA 95123 $520,000 916 sq. ft. $568
2017-10-07 Condo Contemporary 2539 Riparian Court San Jose, CA 95133 $700,000 1,270 sq. ft. 1,307 sq. ft. $551
2017-10-07 Condo 350 2nd Street San Jose, CA 95112 $590,000 976 sq. ft. 1,307 sq. ft. $605
2017-10-07 Condo Contemporary; Mediterranean 1310 Saddle Rack Street San Jose, CA 95126 $760,000 1,258 sq. ft. 1,307 sq. ft. $604
2017-10-06 Condo 668 Capitol Avenue San Jose, CA 95133 $800,000 1,774 sq. ft. 871 sq. ft. $451
2017-10-06 Condo 1155 Weyburn Lane San Jose, CA 95129 $799,999 852 sq. ft. 436 sq. ft. $939
2017-10-06 Condo 1073 Foxglove Place San Jose, CA 95131 $1,119,000 2,243 sq. ft. 436 sq. ft. $499
2017-10-06 Condo 906 Bellhurst Avenue San Jose, CA 95122 $398,000 986 sq. ft. 871 sq. ft. $404
2017-10-05 Condo 1237 Whitfield Court San Jose, CA 95131 $649,888 1,040 sq. ft. 2,178 sq. ft. $625
2017-10-05 Condo 63 Monte Verano Court San Jose, CA 95116 $299,888 597 sq. ft. 1,742 sq. ft. $502
2017-10-05 Condo 5409 Cribari Court San Jose, CA 95135 $408,000 1,223 sq. ft. 1,742 sq. ft. $334
2017-10-05 Condo 952 11th Street San Jose, CA 95112 $499,900 1,062 sq. ft. 1,307 sq. ft. $471
2017-10-05 Condo 38 Almaden Boulevard San Jose, CA 95110 $1,118,000 1,296 sq. ft. 0 sq. ft. $863
2017-10-05 Condo Contemporary; Mediterranean 502 Marble Arch Avenue San Jose, CA 95136 $799,000 1,894 sq. ft. 1,742 sq. ft. $422
2017-10-05 Condo 809 Auzerais Avenue San Jose, CA 95126 $479,990 824 sq. ft. 436 sq. ft. $583
2017-10-05 Condo Contemporary 1184 Tea Rose Circle San Jose, CA 95131 $700,000 1,006 sq. ft. 2,178 sq. ft. $696
2017-10-05 Condo 2164 Galveston Avenue San Jose, CA 95122 $465,000 885 sq. ft. 871 sq. ft. $525
2017-10-05 Condo 7007 Rodling Drive San Jose, CA 95138 $559,888 1,093 sq. ft. 436 sq. ft. $512
2017-10-04 Condo 2642 Senter Creek Court San Jose, CA 95111 $525,000 1,146 sq. ft. 1,307 sq. ft. $458
2017-10-04 Condo 7700 Galloway Drive San Jose, CA 95135 $630,000 1,490 sq. ft. $423
2017-10-04 Condo 1479 Bullion Court San Jose, CA 95120 $1,275,000 2,454 sq. ft. 2,614 sq. ft. $520
2017-10-04 Condo Mediterranean 1413 Allegado Alley San Jose, CA 95128 $709,888 1,860 sq. ft. 1,742 sq. ft. $382
2017-10-04 Condo 960 Pavilion Loop San Jose, CA 95112 $638,000 1,024 sq. ft. 2,614 sq. ft. $623
2017-10-04 Condo 1060 3rd Street San Jose, CA 95112 $385,000 550 sq. ft. 871 sq. ft. $700
2017-10-04 Condo 85 Rancho Drive San Jose, CA 95111 $395,000 918 sq. ft. 1,742 sq. ft. $430
2017-10-04 Condo 5040 Broken Arrow Drive San Jose, CA 95136 $650,000 1,360 sq. ft. 0 sq. ft. $478
2017-10-04 Condo 5631 Blossom Park Lane San Jose, CA 95118 $675,000 1,224 sq. ft. 871 sq. ft. $551
2017-10-04 Condo 4271 Voltaire Street San Jose, CA 95135 $999,998 1,601 sq. ft. 3,485 sq. ft. $625
2017-10-03 Condo 873 Basking Lane San Jose, CA 95138 $649,000 1,257 sq. ft. 1,307 sq. ft. $516
2017-10-03 Condo 35 Kenbrook Circle San Jose, CA 95111 $499,888 1,012 sq. ft. 871 sq. ft. $494
2017-10-03 Condo 2054 Mendocino Lane San Jose, CA 95124 $949,000 1,535 sq. ft. 2,614 sq. ft. $618
2017-10-03 Condo 5673 Sunflower Lane San Jose, CA 95118 $795,000 1,286 sq. ft. 1,742 sq. ft. $618
2017-10-02 Condo 2664 Senter Road San Jose, CA 95111 $460,000 1,020 sq. ft. 871 sq. ft. $451
2017-10-02 Condo 340 Auburn Way San Jose, CA 95129 $588,000 1,099 sq. ft. 436 sq. ft. $535
2017-09-30 Condo Traditional 1077 Almaden Village Lane San Jose, CA 95120 $898,000 1,673 sq. ft. 2,178 sq. ft. $537
2017-09-29 Condo 7150 Rainbow Drive San Jose, CA 95129 $885,000 1,050 sq. ft. 436 sq. ft. $843
2017-09-29 Condo 973 Branham Lane San Jose, CA 95136 $750,000 1,471 sq. ft. 1,742 sq. ft. $510
2017-09-29 Condo Traditional 1151 Illiad Court San Jose, CA 95118 $845,000 1,348 sq. ft. 1,307 sq. ft. $627
2017-09-29 Condo 88 Bush Street San Jose, CA 95126 $888,000 1,444 sq. ft. 436 sq. ft. $615
2017-09-29 Condo 5589 Judith Street San Jose, CA 95123 $409,000 903 sq. ft. 1,742 sq. ft. $453
2017-09-28 Condo 5542 Don Ricardo Court San Jose, CA 95123 $399,000 950 sq. ft. 871 sq. ft. $420
2017-09-28 Condo 171 Silcreek Drive San Jose, CA 95116 $488,888 1,441 sq. ft. 3,049 sq. ft. $339
2017-09-28 Condo 50 Raindance Court San Jose, CA 95136 $599,888 1,196 sq. ft. 436 sq. ft. $502
2017-09-28 Condo 1137 Glenmeadow Court San Jose, CA 95125 $799,950 1,260 sq. ft. 871 sq. ft. $635
2017-09-28 Condo 38 Almaden Boulevard San Jose, CA 95110 $639,000 953 sq. ft. 0 sq. ft. $671
2017-09-28 Condo Contemporary 1056 Vanilla Walkway San Jose, CA 95133 $938,000 2,006 sq. ft. 436 sq. ft. $468
2017-09-28 Condo 410 1st Street San Jose, CA 95112 $645,000 1,071 sq. ft. 436 sq. ft. $602
2017-09-28 Condo 7616 Stoneshire Court San Jose, CA 95135 $730,000 1,509 sq. ft. 1,742 sq. ft. $484
2017-09-28 Condo 608 Boardwalk San Jose, CA 95112 $719,000 1,507 sq. ft. 1,307 sq. ft. $477
2017-09-28 Condo 902 Brea Lane San Jose, CA 95138 $649,000 1,257 sq. ft. 1,307 sq. ft. $516
2017-09-27 Condo 6219 White Moonstone Court San Jose, CA 95123 $799,000 2,258 sq. ft. 1,742 sq. ft. $354
2017-09-27 Condo 1550 Technology Drive San Jose, CA 95110 $529,950 831 sq. ft. 871 sq. ft. $638
2017-09-27 Condo 6557 Timber Court San Jose, CA 95120 $896,000 1,602 sq. ft. 1,742 sq. ft. $559
2017-09-27 Condo 2052 Tangelo Way San Jose, CA 95133 $649,888 1,129 sq. ft. 436 sq. ft. $576
2017-09-27 Condo 203 Coy Drive San Jose, CA 95123 $395,000 903 sq. ft. 1,742 sq. ft. $437
2017-09-27 Condo 5220 Myna Court San Jose, CA 95123 $625,000 1,052 sq. ft. 1,742 sq. ft. $594
2017-09-27 Condo 415 Colony Cove Drive San Jose, CA 95123 $549,000 1,294 sq. ft. 436 sq. ft. $424
2017-09-27 Condo 6078 Calle De Amor San Jose, CA 95124 $835,000 2,235 sq. ft. 2,178 sq. ft. $374
2017-09-27 Condo Contemporary 7206 Mockingbird Place San Jose, CA 95129 $1,298,000 1,756 sq. ft. 4,356 sq. ft. $739
2017-09-27 Condo 1029 Tulipan Drive San Jose, CA 95129 $1,599,000 2,330 sq. ft. 2,614 sq. ft. $686
2017-09-27 Condo 7100 Rainbow Drive San Jose, CA 95129 $828,000 1,050 sq. ft. 436 sq. ft. $789
2017-09-26 Condo 3069 Teal Ridge Court San Jose, CA 95136 $649,000 1,434 sq. ft. $453
2017-09-26 Condo 130 San Fernando Street San Jose, CA 95112 $698,000 1,622 sq. ft. 436 sq. ft. $430
2017-09-26 Condo 1370 Crucero Drive San Jose, CA 95122 $400,000 876 sq. ft. 1,307 sq. ft. $457
2017-09-26 Condo 931 Fruitdale Place San Jose, CA 95126 $749,500 1,508 sq. ft. 1,307 sq. ft. $497
2017-09-26 Condo 5475 Eagles Lane San Jose, CA 95123 $393,000 798 sq. ft. 1,742 sq. ft. $492
2017-09-26 Condo 2552 Blue Rock Court San Jose, CA 95133 $665,000 1,342 sq. ft. 1,307 sq. ft. $496
2017-09-26 Condo 888 Catkin Court San Jose, CA 95128 $454,888 658 sq. ft. 1,307 sq. ft. $691
2017-09-26 Condo 1060 3rd Street San Jose, CA 95112 $388,000 550 sq. ft. 871 sq. ft. $705
2017-09-26 Condo 337 Casselino Drive San Jose, CA 95136 $889,000 2,209 sq. ft. 871 sq. ft. $402
2017-09-26 Condo 914 Bellhurst Avenue San Jose, CA 95122 $398,000 986 sq. ft. 871 sq. ft. $404
2017-09-26 Condo Contemporary 333 Santana Row San Jose, CA 95128 $1,400,000 1,881 sq. ft. 436 sq. ft. $744
2017-09-25 Condo 3550 Alden Way San Jose, CA 95117 $595,000 990 sq. ft. 436 sq. ft. $601
2017-09-25 Condo 1822 Glacier Bay Terrace San Jose, CA 95131 $829,000 1,407 sq. ft. 436 sq. ft. $589
2017-09-23 Condo Contemporary 1699 Alder Creek Court San Jose, CA 95148 $680,000 1,780 sq. ft. 2,178 sq. ft. $382
2017-09-22 Condo 1055 Capitol Avenue San Jose, CA 95133 $455,000 832 sq. ft. 871 sq. ft. $547
2017-09-22 Condo Traditional 2202 Olivegate Lane San Jose, CA 95136 $629,950 1,308 sq. ft. 871 sq. ft. $482
2017-09-22 Condo Mediterranean 1353 Marcello Drive San Jose, CA 95131 $630,000 1,415 sq. ft. 1,307 sq. ft. $445
2017-09-22 Condo 3128 Shofner Place San Jose, CA 95111 $498,800 1,322 sq. ft. 871 sq. ft. $377
2017-09-22 Condo 731 Modern Ice San Jose, CA 95112 $698,888 1,369 sq. ft. $511
2017-09-21 Condo Contemporary 3115 Heather Ridge Drive San Jose, CA 95136 $589,000 1,067 sq. ft. 871 sq. ft. $552
2017-09-21 Condo 5378 Makati Circle San Jose, CA 95123 $529,950 1,233 sq. ft. 1,307 sq. ft. $430
2017-09-21 Condo 2068 Sheffield Drive San Jose, CA 95131 $839,000 1,336 sq. ft. 2,178 sq. ft. $628
2017-09-21 Condo 3819 7 Trees Boulevard San Jose, CA 95111 $399,000 999 sq. ft. 871 sq. ft. $399
2017-09-21 Condo Mediterranean 3052 San Jose Vineyard Place San Jose, CA 95136 $881,406 1,668 sq. ft. 1,742 sq. ft. $528
2017-09-21 Condo 7503 Deveron Court San Jose, CA 95135 $725,000 1,509 sq. ft. 1,742 sq. ft. $480
2017-09-21 Condo 1310 Saddle Rack Street San Jose, CA 95126 $825,000 1,407 sq. ft. 1,307 sq. ft. $586
2017-09-21 Condo 1104 Holly Oak Circle San Jose, CA 95120 $899,000 1,824 sq. ft. 3,049 sq. ft. $493
2017-09-21 Condo Contemporary 1550 Technology Drive San Jose, CA 95110 $638,000 1,133 sq. ft. 1,307 sq. ft. $563
2017-09-21 Condo 1877 Huxley Court San Jose, CA 95125 $799,000 1,622 sq. ft. 1,307 sq. ft. $493
2017-09-20 Condo 166 Sunwood Meadows Place San Jose, CA 95119 $499,950 920 sq. ft. 1,307 sq. ft. $543
2017-09-20 Condo 6261 Ceanothus Lane San Jose, CA 95119 $695,000 1,318 sq. ft. 871 sq. ft. $527
2017-09-20 Condo 3819 7 Trees Boulevard San Jose, CA 95111 $399,000 999 sq. ft. 871 sq. ft. $399
2017-09-20 Condo 4829 Verbena Way San Jose, CA 95129 $1,030,000 1,441 sq. ft. 1,307 sq. ft. $715
2017-09-20 Condo Contemporary 1367 Tea Rose Circle San Jose, CA 95131 $900,000 1,920 sq. ft. 436 sq. ft. $469
2017-09-20 Condo 2316 La Terrace Circle San Jose, CA 95123 $549,500 1,138 sq. ft. 436 sq. ft. $483
2017-09-20 Condo 4651 Powderborn Court San Jose, CA 95136 $649,000 1,441 sq. ft. 1,742 sq. ft. $450
2017-09-20 Condo 342 Vista Roma Way San Jose, CA 95136 $769,888 1,680 sq. ft. 3,049 sq. ft. $458
2017-09-19 Condo Contemporary; Mediterranean 144 3rd Street San Jose, CA 95112 $540,000 936 sq. ft. 871 sq. ft. $577
2017-09-19 Condo Ranch 560 Clara Filice Way San Jose, CA 95125 $599,000 895 sq. ft. 3,920 sq. ft. $669
2017-09-19 Condo 450 Navaro Way San Jose, CA 95134 $629,000 948 sq. ft. 2,614 sq. ft. $664
2017-09-19 Condo 1268 Bouret Drive San Jose, CA 95118 $418,888 810 sq. ft. 6,970 sq. ft. $517
2017-09-19 Condo 1048 Whitebick Drive San Jose, CA 95129 $1,400,000 1,532 sq. ft. 1,742 sq. ft. $914
2017-09-19 Condo 5966 Drytown Place San Jose, CA 95120 $1,150,000 2,913 sq. ft. 3,485 sq. ft. $395
2017-09-19 Condo 891 Georgetown Place San Jose, CA 95126 $919,000 1,625 sq. ft. 871 sq. ft. $566
2017-09-19 Condo 675 Yolo Court San Jose, CA 95136 $575,000 912 sq. ft. 436 sq. ft. $630
2017-09-18 Condo 861 Basking Lane San Jose, CA 95138 $650,000 1,257 sq. ft. 1,307 sq. ft. $517
2017-09-18 Condo 95 Rosebay Court San Jose, CA 95127 $550,000 1,247 sq. ft. 1,307 sq. ft. $441
2017-09-18 Condo 4838 Lakebird Place San Jose, CA 95124 $675,000 1,212 sq. ft. 2,178 sq. ft. $557
2017-09-18 Condo 770 Blossom Hill Road San Jose, CA 95123 $398,000 810 sq. ft. 7,841 sq. ft. $491
2017-09-17 Condo 889 White Moonstone Loop San Jose, CA 95123 $779,000 1,793 sq. ft. 871 sq. ft. $434
2017-09-16 Condo Contemporary 1495 De Rose Way San Jose, CA 95126 $625,000 1,091 sq. ft. 1,307 sq. ft. $573
2017-09-16 Condo Contemporary 2029 Los Gatos Almaden Road San Jose, CA 95124 $895,000 1,467 sq. ft. 1,307 sq. ft. $610
2017-09-16 Condo 1143 Silver Hill Drive San Jose, CA 95120 $999,999 1,739 sq. ft. 1,307 sq. ft. $575
2017-09-15 Condo 2136 Rio Barranca Court San Jose, CA 95116 $469,900 1,180 sq. ft. 871 sq. ft. $398
2017-09-15 Condo 1080 Indian Summer Court San Jose, CA 95122 $469,000 961 sq. ft. $488
2017-09-15 Condo 8124 Cabernet Court San Jose, CA 95135 $699,950 1,497 sq. ft. 2,614 sq. ft. $468
2017-09-15 Condo 495 Calabria Place San Jose, CA 95128 $998,888 1,507 sq. ft. 871 sq. ft. $663
2017-09-15 Condo 1792 Battersea Court San Jose, CA 95132 $950,000 1,474 sq. ft. 871 sq. ft. $644
2017-09-15 Condo 386 Jackson Street San Jose, CA 95112 $775,000 1,380 sq. ft. 871 sq. ft. $562
2017-09-15 Condo Ranch 305 Ribbonwood Avenue San Jose, CA 95123 $729,000 1,378 sq. ft. 2,178 sq. ft. $529
2017-09-15 Condo 4651 Pinto River Court San Jose, CA 95136 $719,000 1,441 sq. ft. 1,742 sq. ft. $499
2017-09-15 Condo Contemporary 386 Jackson Street San Jose, CA 95112 $775,000 1,380 sq. ft. $562
2017-09-15 Condo 6199 Gerdts Drive San Jose, CA 95135 $679,950 1,340 sq. ft. 2,614 sq. ft. $507
2017-09-15 Condo 410 Auburn Way San Jose, CA 95129 $588,000 1,099 sq. ft. 436 sq. ft. $535
2017-09-14 Condo Contemporary 1994 Tradan Drive San Jose, CA 95132 $499,900 988 sq. ft. 1,742 sq. ft. $506
2017-09-14 Condo 38 Almaden Boulevard San Jose, CA 95110 $699,000 791 sq. ft. 0 sq. ft. $884
2017-09-14 Condo 228 Vista Roma Way San Jose, CA 95136 $799,000 1,878 sq. ft. 3,049 sq. ft. $425
2017-09-14 Condo 5252 Makati Circle San Jose, CA 95123 $415,000 744 sq. ft. 1,307 sq. ft. $558
2017-09-14 Condo 1846 Bristol Bay Common San Jose, CA 95131 $799,000 1,407 sq. ft. 436 sq. ft. $568
2017-09-14 Condo 1895 Messina Drive San Jose, CA 95132 $550,000 968 sq. ft. 871 sq. ft. $568
2017-09-14 Condo 5514 Sean Circle San Jose, CA 95123 $548,000 1,245 sq. ft. 1,307 sq. ft. $440
2017-09-14 Condo 801 Winchester Boulevard San Jose, CA 95128 $539,000 692 sq. ft. 871 sq. ft. $779
2017-09-13 Condo 38 N Almaden Boulevard San Jose, CA 95110 $1,100,000 1,275 sq. ft. $863
2017-09-13 Condo 5630 Allen Avenue San Jose, CA 95123 $418,000 810 sq. ft. 8,276 sq. ft. $516
2017-09-13 Condo 1228 Copper Peak Lane San Jose, CA 95120 $888,000 1,155 sq. ft. 3,920 sq. ft. $769
2017-09-13 Condo 615 Berryessa Road San Jose, CA 95112 $638,000 1,024 sq. ft. 1,742 sq. ft. $623
2017-09-12 Condo 1012 Foxglove Place San Jose, CA 95131 $899,880 1,622 sq. ft. 436 sq. ft. $555
2017-09-12 Condo 7217 Via Amparo San Jose, CA 95135 $599,000 1,386 sq. ft. 1,742 sq. ft. $432
2017-09-12 Condo 2212 Amberwood Lane San Jose, CA 95132 $590,000 1,121 sq. ft. 1,307 sq. ft. $526
2017-09-12 Condo 1092 Strayer Drive San Jose, CA 95129 $1,258,000 1,124 sq. ft. 3,049 sq. ft. $1,119
2017-09-11 Condo 1694 Alder Creek Court San Jose, CA 95148 $574,900 1,230 sq. ft. 1,742 sq. ft. $467
2017-09-11 Condo Contemporary 844 La Barbera Drive San Jose, CA 95126 $465,000 808 sq. ft. 871 sq. ft. $576
2017-09-11 Condo 5843 Lake Crowley Place San Jose, CA 95123 $609,900 1,002 sq. ft. $609
2017-09-11 Condo 1060 3rd Street San Jose, CA 95112 $549,000 1,000 sq. ft. 871 sq. ft. $549
2017-09-09 Condo Mediterranean 6901 Rodling Drive San Jose, CA 95138 $599,000 1,129 sq. ft. 436 sq. ft. $531
2017-09-09 Condo Contemporary 5208 Cribari Hills San Jose, CA 95135 $398,888 1,240 sq. ft. 1,742 sq. ft. $322
2017-09-08 Condo 6970 Gregorich Drive San Jose, CA 95138 $530,000 1,093 sq. ft. 436 sq. ft. $485
2017-09-08 Condo 38 Almaden Boulevard San Jose, CA 95110 $998,888 1,333 sq. ft. 0 sq. ft. $749
2017-09-08 Condo 2028 Puerto Limon Court San Jose, CA 95116 $399,500 1,000 sq. ft. 871 sq. ft. $400
2017-09-07 Condo 1411 Mcquesten Drive San Jose, CA 95122 $395,888 876 sq. ft. 1,307 sq. ft. $452
2017-09-07 Condo 3846 Panda Place San Jose, CA 95117 $689,900 1,255 sq. ft. 1,307 sq. ft. $550
2017-09-05 Condo 1556 Camden Village Circle San Jose, CA 95124 $868,000 1,539 sq. ft. 1,742 sq. ft. $564
2017-09-05 Condo Traditional 2758 Somerset Park Circle San Jose, CA 95132 $399,000 677 sq. ft. 1,742 sq. ft. $589
2017-09-04 Condo 375 Mullinix Way San Jose, CA 95136 $960,000 2,356 sq. ft. 2,178 sq. ft. $407
2017-09-04 Condo 1874 Indian Creek Court San Jose, CA 95148 $719,000 1,720 sq. ft. 2,178 sq. ft. $418
2017-09-04 Condo 1114 Mallow Terrace San Jose, CA 95133 $725,000 1,129 sq. ft. 436 sq. ft. $642
2017-09-01 Condo 8701 Lomas Azules Place San Jose, CA 95135 $950,000 2,281 sq. ft. 436 sq. ft. $416
2017-08-31 Condo 320 Auburn Way San Jose, CA 95129 $575,000 1,099 sq. ft. $523
2017-08-31 Condo 333 Santana Row San Jose, CA 95128 $1,025,000 1,099 sq. ft. 436 sq. ft. $933
2017-08-30 Condo 3458 Sassafras Drive San Jose, CA 95111 $440,000 1,157 sq. ft. 1,307 sq. ft. $380
2017-08-30 Condo 5512 Spinnaker Drive San Jose, CA 95123 $389,950 903 sq. ft. 1,742 sq. ft. $432
2017-08-30 Condo 5276 Cribari San Jose, CA 95135 $419,900 1,223 sq. ft. 1,742 sq. ft. $343
2017-08-29 Condo 259 Capitol Avenue San Jose, CA 95127 $395,000 828 sq. ft. 1,742 sq. ft. $477
2017-08-29 Condo 3503 La Terrace Circle San Jose, CA 95123 $409,950 543 sq. ft. $755
2017-08-29 Condo 119 Bob Hansen Court San Jose, CA 95116 $500,000 1,249 sq. ft. 1,307 sq. ft. $400
2017-08-29 Condo 1694 Cedarcreek Drive San Jose, CA 95121 $579,000 1,360 sq. ft. 1,307 sq. ft. $426
2017-08-25 Condo 508 Ellicott Loop San Jose, CA 95123 $910,568 1,826 sq. ft. 1,825 sq. ft. $499
2017-08-25 Condo 499 Calabria Place San Jose, CA 95128 $1,250,000 1,812 sq. ft. 871 sq. ft. $690
2017-08-25 Condo 130 San Fernando Street San Jose, CA 95112 $895,888 1,752 sq. ft. 436 sq. ft. $511
2017-08-25 Condo 1357 Shelby Creek Court San Jose, CA 95120 $959,000 1,630 sq. ft. 3,485 sq. ft. $588
2017-08-25 Condo 7704 Galloway Drive San Jose, CA 95135 $615,000 1,490 sq. ft. $413
2017-08-24 Condo Contemporary 2128 Rio Barranca Court San Jose, CA 95116 $485,000 1,180 sq. ft. 871 sq. ft. $411
2017-08-18 Condo 304 Heredia Court San Jose, CA 95116 $399,000 1,000 sq. ft. 871 sq. ft. $399
2017-08-17 Condo 739 Modern Ice Drive San Jose, CA 95112 $678,888 1,288 sq. ft. 1,742 sq. ft. $527
2017-08-17 Condo Contemporary 2303 Mclaughlin San Jose, CA 95122 $475,500 912 sq. ft. 871 sq. ft. $521
2017-08-17 Condo 1417 Allegado Alley San Jose, CA 95128 $599,000 1,393 sq. ft. 1,742 sq. ft. $430
2017-08-11 Condo 3366 Napoli Place San Jose, CA 95135 $850,000 1,482 sq. ft. 2,178 sq. ft. $574
2017-08-11 Condo 5334 Monterey Highway San Jose, CA 95111 $395,000 950 sq. ft. $416
2017-08-09 Condo 7150 Rainbow Drive San Jose, CA 95129 $890,000 1,126 sq. ft. 436 sq. ft. $790
2017-08-08 Condo 5216 Pelican Court San Jose, CA 95123 $569,000 1,142 sq. ft. 1,742 sq. ft. $498
2017-08-08 Condo 1051 Villa Maria Court San Jose, CA 95125 $758,888 1,353 sq. ft. 1,307 sq. ft. $561
2017-08-08 Condo 3081 Teal Ridge Court San Jose, CA 95136 $599,999 1,103 sq. ft. $544
2017-08-08 Condo 442 Willard Avenue San Jose, CA 95126 $399,000 771 sq. ft. 871 sq. ft. $518
2017-08-05 Condo Contemporary 5235 Cribari Hills San Jose, CA 95135 $449,000 947 sq. ft. 1,307 sq. ft. $474
2017-08-05 Condo 2366 Meadowmont Drive San Jose, CA 95133 $738,800 1,596 sq. ft. 1,742 sq. ft. $463
2017-08-04 Condo Traditional 2925 Florence Avenue San Jose, CA 95127 $439,000 960 sq. ft. 871 sq. ft. $457
2017-08-04 Condo Contemporary 411 Park Avenue San Jose, CA 95110 $518,000 816 sq. ft. $635
2017-08-02 Condo Contemporary 301 Guanacaste Court San Jose, CA 95116 $469,900 1,180 sq. ft. 871 sq. ft. $398
2017-08-01 Condo 6090 Montgomery Court San Jose, CA 95135 $435,000 913 sq. ft. 871 sq. ft. $476
2017-07-31 Condo 8455 Traminer Court San Jose, CA 95135 $629,999 1,497 sq. ft. 2,614 sq. ft. $421
2017-07-30 Condo Contemporary 3220 Shadow Springs Place San Jose, CA 95121 $410,000 911 sq. ft. $450
2017-07-28 Condo 2463 Jubilee Lane San Jose, CA 95131 $419,000 645 sq. ft. 1,742 sq. ft. $650
2017-07-27 Condo 5248 Cribari Hills San Jose, CA 95135 $429,995 947 sq. ft. 1,307 sq. ft. $454
2017-07-27 Condo 1543 Desdemona Court San Jose, CA 95121 $462,500 1,176 sq. ft. 871 sq. ft. $393
2017-07-26 Condo 85 Montecito Vista Drive San Jose, CA 95111 $736,595 1,452 sq. ft. $507
2017-07-26 Condo 1915 La Terrace Circle San Jose, CA 95123 $498,888 904 sq. ft. 436 sq. ft. $552
2017-07-25 Condo 2620 Lakme Court San Jose, CA 95121 $439,888 988 sq. ft. 871 sq. ft. $445
2017-07-23 Condo 3057 San Jose Vineyard Place San Jose, CA 95136 $877,052 1,905 sq. ft. $460
2017-07-21 Condo 5505 Great Oaks Parkway San Jose, CA 95123 $729,550 1,356 sq. ft. $538
2017-07-21 Condo 125 Hudson Place San Jose, CA 95123 $795,086 1,739 sq. ft. $457
2017-07-19 Condo Contemporary 5248 Cribari Hls San Jose, CA 95135 $429,995 947 sq. ft. 1,307 sq. ft. $454
2017-07-19 Condo Contemporary 5597 Makati Circle San Jose, CA 95123 $612,000 1,217 sq. ft. 1,742 sq. ft. $503
2017-07-19 Condo 38 Almaden Boulevard San Jose, CA 95110 $649,000 791 sq. ft. 0 sq. ft. $820
2017-07-19 Condo Contemporary 3066 Aralia Lane San Jose, CA 95135 $1,160,000 2,114 sq. ft. 2,614 sq. ft. $549
2017-07-13 Condo 604 Hermes Court San Jose, CA 95111 $549,900 1,496 sq. ft. 2,178 sq. ft. $368
2017-06-30 Condo 8113 Cabernet San Jose, CA 95135 $675,000 1,554 sq. ft. 1,307 sq. ft. $434
2017-06-27 Condo Contemporary 38 Almaden Boulevard San Jose, CA 95110 $975,000 1,333 sq. ft. 0 sq. ft. $731
2017-06-21 Condo 1103 Longshore Dr San Jose, CA 95128 $848,000 1,606 sq. ft. 3,485 sq. ft. $528
2017-06-21 Condo 101 Laurel Grove Ln San Jose, CA 95126 $819,000 1,640 sq. ft. 1,699 sq. ft. $499
2017-06-21 Condo 7253 Via Vico San Jose, CA 95129 $888,000 1,192 sq. ft. 1,760 sq. ft. $745
2017-06-21 Condo 4644 Hampton Falls Pl San Jose, CA 95136 $749,950 1,745 sq. ft. 436 sq. ft. $430
2017-06-21 Condo 4631 Columbia River Ct San Jose, CA 95136 $649,900 1,760 sq. ft. 1,847 sq. ft. $369
2017-06-21 Condo Modern / High Tech 125 Patterson St 136 San Jose, CA 95112 $575,000 1,218 sq. ft. 727 sq. ft. $472
2017-06-21 Condo 2505 Dillion Ct 3 San Jose, CA 95133 $375,000 903 sq. ft. 1,498 sq. ft. $415
2017-06-21 Condo 834 Owens Lake Dr San Jose, CA 95123 $570,000 867 sq. ft. 1,211 sq. ft. $657
2017-06-21 Condo 3192 Cropley Ave San Jose, CA 95132 $525,000 1,003 sq. ft. 706 sq. ft. $523
2017-06-21 Condo 801 S Winchester Blvd 5202 San Jose, CA 95128 $688,000 986 sq. ft. 893 sq. ft. $698
2017-06-20 Condo Farm House 1076 Myrtle St San Jose, CA 95126 $978,000 1,666 sq. ft. 6,251 sq. ft. $587
2017-06-20 Condo Farm House 1074 Myrtle St San Jose, CA 95126 $988,000 1,722 sq. ft. 6,251 sq. ft. $574
2017-06-19 Condo 136 Spyglass Hill Rd San Jose, CA 95127 $649,888 1,703 sq. ft. 2,239 sq. ft. $382
2017-06-19 Condo 1898 Meridian Ave 36 San Jose, CA 95125 $669,888 1,312 sq. ft. 1,398 sq. ft. $511
2017-06-19 Condo 1737 Abington Ct San Jose, CA 95131 $600,000 987 sq. ft. 1,577 sq. ft. $608
2017-06-19 Condo 88 N Jackson Ave 303 San Jose, CA 95116 $448,888 1,056 sq. ft. 1,054 sq. ft. $425
2017-06-19 Condo 5234 Macaw Way San Jose, CA 95123 $529,000 1,052 sq. ft. 1,612 sq. ft. $503
2017-06-19 Condo 809 Basking Ln San Jose, CA 95138 $699,000 1,705 sq. ft. 1,703 sq. ft. $410
2017-06-19 Condo Contemporary 4786 Hatfield Walkway 3 San Jose, CA 95124 $519,000 903 sq. ft. 2,579 sq. ft. $575
2017-06-18 Condo Contemporary; Traditional 2925 Florence Ave 25 San Jose, CA 95127 $368,000 960 sq. ft. 958 sq. ft. $383
2017-06-18 Condo 2712 Buena View Ct San Jose, CA 95121 $585,000 843 sq. ft. 1,211 sq. ft. $694
2017-06-17 Condo 8786 Grape Wagon Cir San Jose, CA 95135 $825,000 1,675 sq. ft. 436 sq. ft. $493
2017-06-17 Condo 1550 Technology Dr 3089 San Jose, CA 95110 $500,000 831 sq. ft. 832 sq. ft. $602
2017-06-17 Condo 701 Applause Pl San Jose, CA 95134 $660,000 925 sq. ft. 1,577 sq. ft. $714
2017-06-16 Condo 1362 Branham Ln 3 San Jose, CA 95118 $449,950 903 sq. ft. 7,078 sq. ft. $498
2017-06-16 Condo 5193 Cribari Hls San Jose, CA 95135 $525,000 1,223 sq. ft. 1,664 sq. ft. $429
2017-06-16 Condo 8352 Charbono Ct San Jose, CA 95135 $649,000 1,370 sq. ft. 2,962 sq. ft. $474
2017-06-16 Condo Contemporary 144 S 3rd St 125 San Jose, CA 95112 $699,950 1,542 sq. ft. 841 sq. ft. $454
2017-06-16 Condo Contemporary 3873 Jasmine Cir San Jose, CA 95135 $650,000 1,037 sq. ft. 1,198 sq. ft. $627
2017-06-16 Condo 2023 E San Antonio St San Jose, CA 95116 $590,000 1,278 sq. ft. 1,307 sq. ft. $462
2017-06-16 Condo Contemporary 1030 N Jackson Ave San Jose, CA 95133 $749,888 1,697 sq. ft. 436 sq. ft. $442
2017-06-15 Condo 5390 Colony Park Cir San Jose, CA 95123 $499,000 942 sq. ft. 436 sq. ft. $530
2017-06-15 Condo 860 Catkin Ct San Jose, CA 95128 $525,000 922 sq. ft. 1,960 sq. ft. $569
2017-06-15 Condo 2176 Luz Ave San Jose, CA 95116 $398,888 956 sq. ft. 976 sq. ft. $417
2017-06-15 Condo 1040 Lincoln Village Dr San Jose, CA 95125 $849,000 1,319 sq. ft. 3,058 sq. ft. $644
2017-06-15 Condo English 848 Georgetown Pl San Jose, CA 95126 $949,000 1,859 sq. ft. 1,006 sq. ft. $510
2017-06-15 Condo 503 Golfview Dr San Jose, CA 95127 $679,000 1,640 sq. ft. 2,082 sq. ft. $414
2017-06-15 Condo 1133 Quail Run Ct San Jose, CA 95118 $715,000 1,420 sq. ft. 1,442 sq. ft. $504
2017-06-15 Condo 5428 Cribari Ct San Jose, CA 95135 $475,000 1,240 sq. ft. 1,664 sq. ft. $383
2017-06-15 Condo Contemporary 5214 Jacana Ln San Jose, CA 95123 $600,000 1,142 sq. ft. 1,821 sq. ft. $525
2017-06-15 Condo Mediterranean 516 Martha St 106 San Jose, CA 95112 $495,000 742 sq. ft. 745 sq. ft. $667
2017-06-15 Condo 5486 Don Andres Way San Jose, CA 95123 $449,950 884 sq. ft. 2,082 sq. ft. $509
2017-06-15 Condo 1137 Cooper River Dr San Jose, CA 95126 $748,888 1,150 sq. ft. 1,150 sq. ft. $651
2017-06-14 Condo 7680 Galloway Dr San Jose, CA 95135 $778,000 1,751 sq. ft. $444
2017-06-14 Condo 134 Monte Verano Ct San Jose, CA 95116 $379,000 902 sq. ft. 1,812 sq. ft. $420
2017-06-14 Condo 7079 Cypress Point Ct San Jose, CA 95139 $590,000 1,656 sq. ft. 2,113 sq. ft. $356
2017-06-14 Condo Contemporary 7714 Galloway Dr San Jose, CA 95135 $615,000 1,490 sq. ft. 436 sq. ft. $413
2017-06-14 Condo 721 Modern Ice Dr San Jose, CA 95112 $698,000 1,330 sq. ft. 1,342 sq. ft. $525
2017-06-14 Condo 4260 Ballatore Dr San Jose, CA 95134 $935,000 1,405 sq. ft. 871 sq. ft. $665
2017-06-14 Condo 106 Monte Verano Ct San Jose, CA 95116 $299,000 597 sq. ft. 1,812 sq. ft. $501
2017-06-14 Condo 415 Capricorn Ct San Jose, CA 95111 $399,000 1,197 sq. ft. 1,459 sq. ft. $333
2017-06-13 Condo 4551 Huntington Lane San Jose, CA 95136 $853,990 1,990 sq. ft. 1,742 sq. ft. $429
2017-06-13 Condo 4551 Huntington Ln San Jose, CA 95136 $853,990 1,990 sq. ft. 1,660 sq. ft. $429
2017-06-13 Condo 4575 Huntington Ln San Jose, CA 95136 $856,990 2,009 sq. ft. 1,246 sq. ft. $427
2017-06-13 Condo 5703 Makati Cir C San Jose, CA 95123 $499,000 995 sq. ft. $502
2017-06-13 Condo Contemporary 1477 W San Carlos St San Jose, CA 95126 $797,000 1,468 sq. ft. 1,912 sq. ft. $543
2017-06-13 Condo Traditional 8600 Vineyard Creek Ct San Jose, CA 95135 $725,000 1,415 sq. ft. 436 sq. ft. $512
2017-06-13 Condo 2180 Mendocino Ln San Jose, CA 95124 $849,000 1,464 sq. ft. 1,407 sq. ft. $580
2017-06-13 Condo 2136 Sheffield Dr San Jose, CA 95131 $848,950 1,376 sq. ft. 2,026 sq. ft. $617
2017-06-13 Condo 410 Auburn Way 11 San Jose, CA 95129 $518,000 1,099 sq. ft. 549 sq. ft. $471
2017-06-13 Condo 951 S 12th St 104 San Jose, CA 95112 $499,000 1,277 sq. ft. 1,276 sq. ft. $391
2017-06-13 Condo 490 Auburn Way 9 San Jose, CA 95129 $579,950 1,099 sq. ft. 549 sq. ft. $528
2017-06-13 Condo 47 Silcreek Dr San Jose, CA 95116 $468,888 1,318 sq. ft. 436 sq. ft. $356
2017-06-13 Condo 217 Banana Grove Ln San Jose, CA 95123 $599,950 1,166 sq. ft. 1,873 sq. ft. $515
2017-06-12 Condo Contemporary 2738 Goble Ln 1 San Jose, CA 95111 $749,000 1,452 sq. ft. 1,433 sq. ft. $516
2017-06-12 Condo 1558 Alma Terrace San Jose, CA 95125 $569,000 1,071 sq. ft. 436 sq. ft. $531
2017-06-12 Condo 411 Park Ave 219 San Jose, CA 95110 $548,000 1,048 sq. ft. 1,742 sq. ft. $523
2017-06-12 Condo 5034 Cribari Vale San Jose, CA 95135 $434,950 1,223 sq. ft. 1,664 sq. ft. $356
2017-06-12 Condo 101 Bob Hansen Ct San Jose, CA 95116 $530,000 1,272 sq. ft. 1,664 sq. ft. $417
2017-06-12 Condo Contemporary 7529 Morevern Cir San Jose, CA 95135 $721,000 1,572 sq. ft. 2,082 sq. ft. $459
2017-06-12 Condo 97 E Saint James St 38 San Jose, CA 95112 $599,000 1,203 sq. ft. 436 sq. ft. $498
2017-06-12 Condo Contemporary 354 Powerscourt Way San Jose, CA 95136 $735,000 1,568 sq. ft. 1,568 sq. ft. $469
2017-06-11 Condo 172 Oakbrook Cir Cl San Jose, CA 95139 $488,888 1,008 sq. ft. 1,041 sq. ft. $485
2017-06-10 Condo 3364 Bolsena Ct San Jose, CA 95135 $749,000 1,776 sq. ft. 1,808 sq. ft. $422
2017-06-10 Condo 2352 Warfield Way B San Jose, CA 95122 $420,000 885 sq. ft. 1,011 sq. ft. $475
2017-06-10 Condo Contemporary 826 Sevin Ter San Jose, CA 95133 $748,000 1,369 sq. ft. 1,350 sq. ft. $546
2017-06-10 Condo Contemporary 350 N 2nd St 309 San Jose, CA 95112 $585,000 976 sq. ft. 1,115 sq. ft. $599
2017-06-10 Condo 183 W Alma Ave San Jose, CA 95110 $589,000 1,200 sq. ft. 1,917 sq. ft. $491
2017-06-10 Condo Contemporary 3321 Lake Albano Cir San Jose, CA 95135 $739,950 1,776 sq. ft. 1,799 sq. ft. $417
2017-06-10 Condo 88 N Jackson Ave 124 San Jose, CA 95116 $485,000 1,056 sq. ft. 1,054 sq. ft. $459
2017-06-10 Condo 1071 Foxchase Dr San Jose, CA 95123 $579,000 1,326 sq. ft. 1,324 sq. ft. $437
2017-06-10 Condo 1550 Technology Dr 1036 San Jose, CA 95110 $498,000 875 sq. ft. 876 sq. ft. $569
2017-06-09 Condo 7738 Kilmarnok Dr San Jose, CA 95135 $619,000 1,490 sq. ft. 436 sq. ft. $415
2017-06-08 Condo 4580 Waterville Dr San Jose, CA 95118 $540,000 987 sq. ft. $547
2017-06-08 Condo 490 Owlswood Way San Jose, CA 95111 $485,000 1,197 sq. ft. 1,459 sq. ft. $405
2017-06-08 Condo 1823 Ashmeade Ct San Jose, CA 95125 $749,000 1,071 sq. ft. 1,498 sq. ft. $699
2017-06-08 Condo 1192 Brightside Ct San Jose, CA 95127 $439,000 1,000 sq. ft. 1,716 sq. ft. $439
2017-06-08 Condo Contemporary 5637 Calmor Ave 3 San Jose, CA 95123 $390,000 903 sq. ft. 8,259 sq. ft. $432
2017-06-08 Condo 1521 Fledermaus Ct San Jose, CA 95121 $509,000 1,474 sq. ft. 1,011 sq. ft. $345
2017-06-08 Condo 1961 Foxhall Loop San Jose, CA 95125 $819,888 1,529 sq. ft. 1,498 sq. ft. $536
2017-06-08 Condo 461 Northlake Dr 20 San Jose, CA 95117 $848,888 1,626 sq. ft. 810 sq. ft. $522
2017-06-08 Condo 3265 Heather Ridge Ct San Jose, CA 95136 $579,000 1,067 sq. ft. 1,067 sq. ft. $543
2017-06-08 Condo 3819 Seven Trees Blvd 302 San Jose, CA 95111 $425,000 999 sq. ft. $425
2017-06-07 Condo 2377 Lava Drive San Jose, CA 95133 $688,000 1,596 sq. ft. 1,742 sq. ft. $431
2017-06-07 Condo 112 Bob Hansen Court San Jose, CA 95116 $540,000 1,495 sq. ft. 1,307 sq. ft. $361
2017-06-07 Condo 107 Bob Hansen Court San Jose, CA 95116 $500,000 1,249 sq. ft. 1,307 sq. ft. $400
2017-06-07 Condo 6322 Whaley Dr San Jose, CA 95135 $589,000 1,102 sq. ft. 2,431 sq. ft. $534
2017-06-07 Condo 2377 Lava Dr San Jose, CA 95133 $688,000 1,596 sq. ft. 1,542 sq. ft. $431
2017-06-07 Condo 112 Bob Hansen Ct San Jose, CA 95116 $540,000 1,495 sq. ft. 1,424 sq. ft. $361
2017-06-07 Condo 107 Bob Hansen Ct San Jose, CA 95116 $500,000 1,249 sq. ft. 1,424 sq. ft. $400
2017-06-07 Condo Contemporary 5043 Le Miccine Ter San Jose, CA 95129 $999,800 1,366 sq. ft. 1,002 sq. ft. $732
2017-06-07 Condo 562 N 7th St San Jose, CA 95112 $739,000 1,280 sq. ft. 545 sq. ft. $577
2017-06-07 Condo 1169 Foxchase Dr San Jose, CA 95123 $530,000 1,150 sq. ft. 436 sq. ft. $461
2017-06-06 Condo 38 N Almaden Blvd 2015 San Jose, CA 95110 $1,050,000 1,306 sq. ft. 166 sq. ft. $804
2017-06-06 Condo 801 S Winchester Blvd 1108 San Jose, CA 95128 $699,000 986 sq. ft. 893 sq. ft. $709
2017-06-06 Condo Contemporary 1637 Marconi Way San Jose, CA 95125 $974,988 2,010 sq. ft. 2,226 sq. ft. $485
2017-06-06 Condo 368 Tower Hill Ave San Jose, CA 95136 $699,000 1,487 sq. ft. 1,080 sq. ft. $470
2017-06-06 Condo Contemporary 1479 Bullion Ct San Jose, CA 95120 $1,250,000 2,454 sq. ft. 2,762 sq. ft. $509
2017-06-05 Condo 88 Bush St 2203 San Jose, CA 95126 $849,000 1,444 sq. ft. 897 sq. ft. $588
2017-06-05 Condo Contemporary 6224 Gerdts Drive San Jose, CA 95135 $749,000 1,704 sq. ft. 2,614 sq. ft. $440
2017-06-05 Condo Contemporary 6224 Gerdts Dr San Jose, CA 95135 $809,000 1,704 sq. ft. 2,831 sq. ft. $475
2017-06-05 Condo Contemporary 297 Tradewinds Dr 202 San Jose, CA 95123 $564,961 1,466 sq. ft. 436 sq. ft. $385
2017-06-05 Condo 1485 De Rose Way 220 San Jose, CA 95126 $599,000 1,224 sq. ft. 1,224 sq. ft. $489
2017-06-05 Condo 7724 Kilmarnok Dr San Jose, CA 95135 $615,000 1,490 sq. ft. 436 sq. ft. $413
2017-06-03 Condo 6226 Gerdts Dr San Jose, CA 95135 $849,900 1,704 sq. ft. 2,788 sq. ft. $499
2017-06-03 Condo 1583 Delante Ter San Jose, CA 95118 $679,000 1,013 sq. ft. 828 sq. ft. $670
2017-06-03 Condo 1060 S 3rd St 104 San Jose, CA 95112 $399,000 667 sq. ft. 741 sq. ft. $598
2017-06-03 Condo 1098 Indian Summer Ct San Jose, CA 95122 $475,000 1,052 sq. ft. 523 sq. ft. $452
2017-06-03 Condo 5536 Cribari Cir San Jose, CA 95135 $410,000 1,240 sq. ft. 1,655 sq. ft. $331
2017-06-03 Condo 223 Rosarno Ct San Jose, CA 95111 $674,950 1,450 sq. ft. 1,133 sq. ft. $465
2017-06-03 Condo Traditional 7658 Falkirk Dr San Jose, CA 95135 $728,888 1,509 sq. ft. 1,917 sq. ft. $483
2017-06-03 Condo 1550 Technology Dr 2120 San Jose, CA 95110 $475,000 831 sq. ft. 828 sq. ft. $572
2017-06-01 Condo 1136 Holly Oak Cir San Jose, CA 95120 $779,000 1,299 sq. ft. 2,962 sq. ft. $600
2017-06-01 Condo 2011 Quadros Ln San Jose, CA 95131 $610,000 994 sq. ft. 1,960 sq. ft. $614
2017-06-01 Condo 1322 Joplin Dr 4 San Jose, CA 95118 $438,888 798 sq. ft. 8,059 sq. ft. $550
2017-06-01 Condo 19 N Willard Ave San Jose, CA 95126 $888,000 1,616 sq. ft. 1,437 sq. ft. $550
2017-06-01 Condo 482 Marble Arch Ave San Jose, CA 95136 $700,000 1,983 sq. ft. 2,004 sq. ft. $353
2017-06-01 Condo 387 Lewis Rd San Jose, CA 95111 $499,000 1,144 sq. ft. 3,180 sq. ft. $436
2017-05-31 Condo 5866 Smoky Quartz Loop San Jose, CA 95123 $789,888 1,712 sq. ft. 1,350 sq. ft. $461
2017-05-31 Condo 2560 Baton Rouge Dr San Jose, CA 95133 $699,888 1,504 sq. ft. 1,176 sq. ft. $465
2017-05-31 Condo Contemporary 259 N Capitol Ave 166 San Jose, CA 95127 $385,000 828 sq. ft. $465
2017-05-31 Condo 133 Monte Verano Ct San Jose, CA 95116 $359,000 877 sq. ft. 1,830 sq. ft. $409
2017-05-31 Condo 1583 Sandra Kay Ct San Jose, CA 95126 $649,000 1,068 sq. ft. 2,614 sq. ft. $608
2017-05-31 Condo Contemporary 350 N 2nd St 142 San Jose, CA 95112 $579,000 1,238 sq. ft. 1,220 sq. ft. $468
2017-05-30 Condo 531 Giuffrida Ave G San Jose, CA 95123 $525,000 1,333 sq. ft. 2,962 sq. ft. $394
2017-05-30 Condo 4807 Capay Dr 1 San Jose, CA 95118 $438,888 810 sq. ft. 7,187 sq. ft. $542
2017-05-27 Condo 1292 Bouret Dr 4 San Jose, CA 95118 $429,950 798 sq. ft. 7,100 sq. ft. $539
2017-05-26 Condo 333 Blossom Hill Rd 2 San Jose, CA 95123 $389,000 903 sq. ft. 76,230,000 sq. ft. $431
2017-05-26 Condo Contemporary 3319 Swancreek Ct San Jose, CA 95121 $545,888 1,234 sq. ft. 1,350 sq. ft. $442
2017-05-26 Condo 1670 Los Suenos Ave San Jose, CA 95116 $535,000 1,254 sq. ft. 2,222 sq. ft. $427
2017-05-26 Condo 1118 Chicory Ct San Jose, CA 95120 $750,000 1,124 sq. ft. 2,265 sq. ft. $667
2017-05-26 Condo Contemporary; Modern / High Tech 333 Santana Row 220 San Jose, CA 95128 $1,098,890 1,405 sq. ft. 436 sq. ft. $782
2017-05-26 Condo Traditional 7388 Via Laguna San Jose, CA 95135 $819,500 1,837 sq. ft. 436 sq. ft. $446
2017-05-25 Condo 88 N Jackson Ave 128 San Jose, CA 95116 $525,900 1,200 sq. ft. 1,220 sq. ft. $438
2017-05-24 Condo Contemporary 1055 N Capitol Ave 21 San Jose, CA 95133 $380,000 632 sq. ft. 784 sq. ft. $601
2017-05-22 Condo Contemporary 130 E San Fernando St 412 San Jose, CA 95112 $719,888 1,622 sq. ft. 566 sq. ft. $444
2017-05-20 Condo 6509 Crenshaw Ct San Jose, CA 95120 $790,000 1,628 sq. ft. 1,786 sq. ft. $485
2017-05-19 Condo 1060 S 3rd St 170 San Jose, CA 95112 $548,000 1,100 sq. ft. 741 sq. ft. $498
2017-05-19 Condo 6978 Silver Fox Dr San Jose, CA 95120 $959,000 1,739 sq. ft. 1,220 sq. ft. $551
2017-05-19 Condo Contemporary 1657 Cedarcreek Ct San Jose, CA 95121 $590,000 1,508 sq. ft. 1,394 sq. ft. $391
2017-05-19 Condo 3321 Skyward Pl San Jose, CA 95136 $635,000 1,285 sq. ft. 1,045 sq. ft. $494
2017-05-19 Condo Contemporary; Modern / High Tech 88 E San Fernando St 910 San Jose, CA 95113 $599,000 889 sq. ft. 261 sq. ft. $674
2017-05-18 Condo 3141 Shofner Pl San Jose, CA 95111 $450,000 1,322 sq. ft. 2,004 sq. ft. $340
2017-05-18 Condo 593 Carpentier Way San Jose, CA 95111 $465,000 1,322 sq. ft. 610 sq. ft. $352
2017-05-18 Condo 144 S 3rd St 424 San Jose, CA 95112 $670,000 1,421 sq. ft. 1,525 sq. ft. $472
2017-05-18 Condo Contemporary 2125 Oakland Rd San Jose, CA 95131 $728,000 1,213 sq. ft. 2,265 sq. ft. $600
2017-05-18 Condo 1817 Queen Victoria Way San Jose, CA 95132 $599,000 1,176 sq. ft. 871 sq. ft. $509
2017-05-18 Condo Contemporary 1894 Shilling Ct San Jose, CA 95132 $700,000 1,474 sq. ft. 1,002 sq. ft. $475
2017-05-17 Condo Contemporary; Mediterranean 3051 San Jose Vineyard Place San Jose, CA 95136 $943,682 1,995 sq. ft. $473
2017-05-17 Condo 1176 Bird Ave San Jose, CA 95125 $735,000 1,244 sq. ft. 915 sq. ft. $591
2017-05-16 Condo Mediterranean 346 Adeline Ave 212 San Jose, CA 95136 $799,000 1,721 sq. ft. 828 sq. ft. $464
2017-05-16 Condo 1336 Meadow Ridge Cir San Jose, CA 95131 $599,000 896 sq. ft. 1,045 sq. ft. $669
2017-05-16 Condo 5937 Fiddletown Pl San Jose, CA 95120 $1,150,000 2,454 sq. ft. 2,831 sq. ft. $469
2017-05-16 Condo 259 N Capitol Ave 215 San Jose, CA 95127 $299,980 777 sq. ft. 1,742 sq. ft. $386
2017-05-16 Condo 2318 Lincoln Ave San Jose, CA 95125 $849,888 1,684 sq. ft. 2,047 sq. ft. $505
2017-05-15 Condo 7140 Clarendon St San Jose, CA 95129 $1,248,890 1,448 sq. ft. 741 sq. ft. $862
2017-05-13 Condo Mediterranean 3093 Lina Ln 5 San Jose, CA 95136 $765,255 1,668 sq. ft. $459
2017-05-13 Condo 393 Tower Hill Ave San Jose, CA 95136 $899,000 2,356 sq. ft. 1,176 sq. ft. $382
2017-05-13 Condo 4563 Huntington Lane San Jose, CA 95136 $741,990 1,373 sq. ft. 1,307 sq. ft. $540
2017-05-12 Condo Modern / High Tech 333 Santana Row 226 San Jose, CA 95128 $1,588,000 1,881 sq. ft. 436 sq. ft. $844
2017-05-12 Condo 243 Vista Roma Way San Jose, CA 95136 $799,000 1,878 sq. ft. 3,049 sq. ft. $425
2017-05-11 Condo Contemporary; Modern / High Tech 450 E Mission St 4 San Jose, CA 95112 $700,000 1,241 sq. ft. 1,699 sq. ft. $564
2017-05-11 Condo Contemporary 606 Almaden Walk Loop San Jose, CA 95125 $658,000 1,327 sq. ft. 14,680 sq. ft. $496
2017-05-09 Condo Contemporary 2109 Sunstruck Ct San Jose, CA 95125 $635,000 1,144 sq. ft. 1,568 sq. ft. $555
2017-05-09 Condo Contemporary 5516 Sean Cir 43 San Jose, CA 95123 $435,000 997 sq. ft. 3,615 sq. ft. $436
2017-05-09 Condo 5623 Playa Del Rey Ct 3 San Jose, CA 95123 $409,966 903 sq. ft. 10,367 sq. ft. $454
2017-05-08 Condo 3052 San Jose Vineyard Place San Jose, CA 95136 $911,835 1,995 sq. ft. $457
2017-05-08 Condo Lina San Jose, CA 95136 $742,128 1,658 sq. ft. $448
2017-05-06 Condo 404 Tortola Way San Jose, CA 95133 $469,000 1,067 sq. ft. 784 sq. ft. $440
2017-05-05 Condo 5538 Cribari Cir San Jose, CA 95135 $421,500 1,240 sq. ft. 1,655 sq. ft. $340
2017-05-05 Condo 478 Marble Arch Ave San Jose, CA 95136 $820,000 1,983 sq. ft. 2,004 sq. ft. $414
2017-05-05 Condo 31 Muirfield Ct San Jose, CA 95116 $350,000 780 sq. ft. 2,134 sq. ft. $449
2017-05-05 Condo 88 E San Fernando St 1307 San Jose, CA 95113 $650,000 830 sq. ft. 261 sq. ft. $783
2017-05-03 Condo 130 E San Fernando St 416 San Jose, CA 95112 $705,000 1,622 sq. ft. 566 sq. ft. $435
2017-05-03 Condo 305 Casselino Dr San Jose, CA 95136 $780,000 1,810 sq. ft. 828 sq. ft. $431
2017-05-03 Condo 1430 Crucero Dr B San Jose, CA 95122 $435,000 1,150 sq. ft. 610 sq. ft. $378
2017-05-02 Condo 508 King George Ave San Jose, CA 95136 $690,000 1,690 sq. ft. 1,699 sq. ft. $408
2017-05-02 Condo 2388 Lava Dr San Jose, CA 95133 $618,000 1,342 sq. ft. 1,525 sq. ft. $461
2017-05-02 Condo 1024 Summerplace Dr San Jose, CA 95122 $335,000 730 sq. ft. $459
2017-05-01 Condo 6115 Heathercreek Way San Jose, CA 95123 $850,000 2,376 sq. ft. 6,055 sq. ft. $358
2017-04-28 Condo 4691 Albany Cir 119 San Jose, CA 95129 $838,000 1,350 sq. ft. 1,786 sq. ft. $621
2017-04-27 Condo 518 Marble Arch Ave 618 San Jose, CA 95136 $729,915 1,983 sq. ft. 2,004 sq. ft. $368
2017-04-27 Condo Contemporary 5635 Blossom Park Ln San Jose, CA 95118 $635,000 1,224 sq. ft. 871 sq. ft. $519
2017-04-27 Condo 5516 Spinnaker Dr 2 San Jose, CA 95123 $359,000 903 sq. ft. 1,742 sq. ft. $398
2017-04-27 Condo 110 Rancho Dr C San Jose, CA 95111 $370,000 822 sq. ft. 1,742 sq. ft. $450
2017-04-26 Condo Contemporary 465 Mill River San Jose, CA 95134 $920,000 1,546 sq. ft. 1,612 sq. ft. $595
2017-04-26 Condo Modern / High Tech 88 Bush St 1106 San Jose, CA 95126 $825,000 1,275 sq. ft. 479 sq. ft. $647
2017-04-25 Condo 113 Bob Hansen Ct San Jose, CA 95116 $500,000 1,249 sq. ft. 1,437 sq. ft. $400
2017-04-23 Condo Contemporary 934 Bellhurst Ave San Jose, CA 95122 $398,000 986 sq. ft. 784 sq. ft. $404
2017-04-22 Condo Bungalow 6037 Montgomery Cors San Jose, CA 95135 $398,000 650 sq. ft. 653 sq. ft. $612
2017-04-22 Condo 8451 Traminer San Jose, CA 95135 $649,900 1,571 sq. ft. 3,049 sq. ft. $414
2017-04-21 Condo Traditional 1087 Almaden Village Ln San Jose, CA 95120 $862,000 1,672 sq. ft. 1,437 sq. ft. $516
2017-04-20 Condo Contemporary 2664 Salome San Jose, CA 95121 $528,888 1,474 sq. ft. 1,002 sq. ft. $359
2017-04-19 Condo 8451 Traminer San Jose, CA 95135 $649,900 1,571 sq. ft. 3,223 sq. ft. $414
2017-04-19 Condo 860 N 8th St San Jose, CA 95112 $749,950 1,675 sq. ft. 1,699 sq. ft. $448
2017-04-18 Condo 400 N 1st 115 San Jose, CA 95112 $569,000 1,113 sq. ft. 697 sq. ft. $511
2017-04-18 Condo Modern / High Tech 350 N 2nd St 112 San Jose, CA 95112 $559,000 976 sq. ft. 1,133 sq. ft. $573
2017-04-14 Condo Contemporary; Mediterranean 2728 Ginoso Court San Jose, CA 95111 $730,000 1,848 sq. ft. $395
2017-04-14 Condo Contemporary 5513 Great Oaks Parkway San Jose, CA 95123 $737,000 1,531 sq. ft. $481
2017-04-14 Condo Contemporary 5513 Great Oaks Pkwy San Jose, CA 95123 $735,000 1,531 sq. ft. $480
2017-04-14 Condo Contemporary; Mediterranean 2726 Terni Court San Jose, CA 95111 $750,000 1,953 sq. ft. $384
2017-04-13 Condo 554 Toyon Ave 11 San Jose, CA 95127 $579,999 1,419 sq. ft. 1,525 sq. ft. $409
2017-04-13 Condo 3057 #1 San Jose Vineyard Place San Jose, CA 95136 $813,132 1,818 sq. ft. $447
2017-04-13 Condo Contemporary; Mediterranean 2727 Terni Court San Jose, CA 95111 $635,000 1,303 sq. ft. $487
2017-04-13 Condo Contemporary 5561 Great Oaks Parkway San Jose, CA 95123 $732,578 1,356 sq. ft. $540
2017-04-13 Condo 8416 Chenin Blanc Lane San Jose, CA 95135 $689,000 1,497 sq. ft. 2,614 sq. ft. $460
2017-04-13 Condo Contemporary 119 Hudson Place San Jose, CA 95123 $753,510 1,739 sq. ft. $433
2017-04-13 Condo 969 Bellhurst Avenue San Jose, CA 95122 $385,000 986 sq. ft. 871 sq. ft. $390
2017-04-12 Condo 801 S Winchester Blvd 1206 San Jose, CA 95128 $689,000 986 sq. ft. 915 sq. ft. $699
2017-04-12 Condo 2515 Dillion Ct 4 San Jose, CA 95133 $365,888 798 sq. ft. 1,481 sq. ft. $459
2017-04-07 Condo 6041 Sunstone Dr San Jose, CA 95123 $809,950 2,258 sq. ft. 1,612 sq. ft. $359
2017-04-05 Condo Ranch 1269 Adrian Way San Jose, CA 95122 $640,000 1,200 sq. ft. 5,140 sq. ft. $533
2017-04-05 Condo 2881 Meridian Ave 168 San Jose, CA 95124 $534,950 971 sq. ft. 1,220 sq. ft. $551
2017-04-01 Condo 954 Summerplace Dr San Jose, CA 95122 $435,000 1,124 sq. ft. 436 sq. ft. $387
2017-04-01 Condo 5115 Cribari Pl San Jose, CA 95135 $384,900 1,240 sq. ft. 1,655 sq. ft. $310
2017-03-31 Condo 494 Coyote Creek Cir San Jose, CA 95116 $359,999 633 sq. ft. 1,133 sq. ft. $569
2017-03-31 Condo 8416 Chenin Blanc Ln San Jose, CA 95135 $689,000 1,497 sq. ft. 2,657 sq. ft. $460
2017-03-31 Condo Contemporary 5561 Great Oaks Pkwy 25 San Jose, CA 95123 $730,578 1,356 sq. ft. $539
2017-03-30 Condo 7376 Via Montecitos San Jose, CA 95135 $699,000 1,781 sq. ft. 2,614 sq. ft. $392
2017-03-28 Condo Luxury 38 N Almaden Blvd 505 San Jose, CA 95110 $635,888 956 sq. ft. 174 sq. ft. $665
2017-03-23 Condo 4545 Huntington Ln San Jose, CA 95136 $851,990 1,990 sq. ft. 0 sq. ft. $428
2017-03-22 Condo 2292 Warfield Way B San Jose, CA 95122 $419,000 885 sq. ft. 1,002 sq. ft. $473
2017-03-21 Condo 1547 Desdemona Ct San Jose, CA 95121 $489,000 1,176 sq. ft. 871 sq. ft. $416
2017-03-13 Condo 829 N Capitol Ave 2 San Jose, CA 95133 $415,000 903 sq. ft. 1,481 sq. ft. $460
2017-03-10 Condo Modern / High Tech 175 W Saint James St 110 San Jose, CA 95110 $575,000 796 sq. ft. 305 sq. ft. $722
2017-03-02 Condo Mediterranean 1433 Allegado Aly San Jose, CA 95128 $699,000 1,860 sq. ft. 1,612 sq. ft. $376
2017-03-02 Condo 356 Santana Row 300 San Jose, CA 95128 $1,899,000 2,368 sq. ft. 436 sq. ft. $802
2017-02-23 Condo 8018 Pinot Noir Ct San Jose, CA 95135 $395,000 811 sq. ft. 915 sq. ft. $487
2017-02-09 Condo Contemporary; Modern / High Tech 38 N Almaden Blvd 1119 San Jose, CA 95110 $920,000 1,220 sq. ft. 174 sq. ft. $754
2017-02-03 Condo Contemporary 1414 Mcquesten Dr B San Jose, CA 95122 $399,000 1,150 sq. ft. 610 sq. ft. $347
2017-02-03 Condo 1091 Foxglove Pl 202 San Jose, CA 95131 $899,000 1,850 sq. ft. 1,133 sq. ft. $486
2017-01-24 Condo Contemporary 2475 Sequester Ct San Jose, CA 95133 $365,000 829 sq. ft. $440
2017-01-20 Condo 7772 Beltane Dr San Jose, CA 95135 $598,500 1,490 sq. ft. 436 sq. ft. $402
2017-01-04 Condo 8423 Chenin Blanc Ln San Jose, CA 95135 $695,000 1,803 sq. ft. 3,354 sq. ft. $385
2016-10-28 Condo Contemporary 2134 Luz Ave San Jose, CA 95116 $449,000 1,192 sq. ft. 1,176 sq. ft. $377